KHZL

Hazleton Regional Airport

Hazleton, Pennsylvania, USA
METAR KHZL 170155Z AUTO 35004KT 10SM OVC017 M01/M04 A3011 RMK AO2
Observed Flight Rules
Dec-17 @ 01:55 UTC (35 minutes ago) Marginal Visual Flight Rules
Wind Visibility Clouds
350° at 4 knots 10 miles
  • Overcast at 1,700' AGL
Temperatures Readings
Current -1°C / 30°F
Dewpoint -4°C / 25°F
Humidity 80%
Altimeter 30.11" Hg
Pressure 1020 hPa
Elevation 489
METAR KHZL 170155Z AUTO 35004KT 10SM OVC017 M01/M04 A3011 RMK AO2
Observed Flight Rules
Dec-17 @ 01:55 UTC
(35 minutes ago)
MVFR
Wind Visibility
350° at 4 knots 10 miles
Clouds
  • Overcast at 1,700' AGL
Temperature Dewpoint
-1°C / 30°F -4°C / 25°F
Humidity Altimeter Pressure
80% 30.11" Hg 1020 hPa